createdAt,value
2019-05-29T00:03:53.449Z,9.93
2019-05-29T00:07:54.335Z,8.83
2019-05-29T00:11:55.179Z,8.33
2019-05-29T00:15:56.149Z,9.23
2019-05-29T00:19:57.035Z,9.20
2019-05-29T00:23:57.940Z,10.03
2019-05-29T00:27:58.795Z,10.67
2019-05-29T00:31:59.653Z,9.27
2019-05-29T00:36:00.534Z,8.43
2019-05-29T00:40:03.605Z,9.37
2019-05-29T00:44:04.485Z,9.67
2019-05-29T00:48:05.363Z,9.07
2019-05-29T00:52:06.363Z,9.77
2019-05-29T00:56:08.426Z,9.97
2019-05-29T01:00:11.207Z,9.83
2019-05-29T01:04:12.328Z,10.03
2019-05-29T01:08:14.400Z,9.87
2019-05-29T01:12:15.534Z,9.97
2019-05-29T01:16:17.446Z,10.87
2019-05-29T01:20:19.921Z,10.50
2019-05-29T01:24:21.169Z,9.47
2019-05-29T01:28:23.129Z,10.47
2019-05-29T01:32:24.143Z,10.77
2019-05-29T01:36:25.024Z,10.53
2019-05-29T01:40:29.103Z,9.93
2019-05-29T01:44:28.647Z,10.77
2019-05-29T01:48:29.513Z,9.50
2019-05-29T01:52:30.402Z,10.30
2019-05-29T01:56:31.286Z,10.17
2019-05-29T02:00:32.281Z,10.33
2019-05-29T02:04:33.220Z,9.37
2019-05-29T02:08:34.198Z,10.37
2019-05-29T02:12:35.073Z,9.57
2019-05-29T02:16:35.945Z,11.37
2019-05-29T02:20:36.818Z,9.33
2019-05-29T02:24:37.685Z,10.60
2019-05-29T02:28:38.667Z,12.87
2019-05-29T02:32:39.557Z,13.33
2019-05-29T02:36:40.472Z,13.30
2019-05-29T02:40:41.443Z,13.60
2019-05-29T02:44:42.639Z,12.90
2019-05-29T02:48:43.791Z,14.17
2019-05-29T02:52:44.710Z,13.50
2019-05-29T02:56:45.734Z,15.43
2019-05-29T03:00:53.882Z,15.40
2019-05-29T03:04:54.920Z,13.77
2019-05-29T03:08:55.904Z,10.57
2019-05-29T03:12:56.979Z,12.37
2019-05-29T03:16:57.940Z,11.93
2019-05-29T03:20:58.927Z,12.90
2019-05-29T03:24:59.800Z,12.03
2019-05-29T03:29:00.671Z,10.83
2019-05-29T03:33:01.578Z,11.53
2019-05-29T03:37:02.632Z,12.23
2019-05-29T03:41:03.599Z,12.73
2019-05-29T03:45:04.691Z,10.23
2019-05-29T03:49:06.689Z,8.97
2019-05-29T03:53:07.524Z,8.73
2019-05-29T03:57:08.503Z,10.13
2019-05-29T04:01:09.395Z,10.17
2019-05-29T04:05:10.473Z,10.50
2019-05-29T04:09:11.463Z,10.60
2019-05-29T04:13:12.426Z,11.27
2019-05-29T04:17:13.718Z,9.90
2019-05-29T04:21:15.601Z,9.03
2019-05-29T04:25:16.464Z,7.40
2019-05-29T04:29:18.133Z,7.63
2019-05-29T04:33:19.602Z,7.47
2019-05-29T04:37:20.467Z,7.33
2019-05-29T04:41:21.328Z,6.47
2019-05-29T04:45:22.222Z,6.40
2019-05-29T04:49:23.093Z,6.60
2019-05-29T04:53:23.967Z,6.70
2019-05-29T04:57:24.888Z,6.00
2019-05-29T05:01:25.773Z,6.07
2019-05-29T05:05:26.673Z,5.90
2019-05-29T05:09:27.522Z,5.80
2019-05-29T05:13:29.465Z,5.27
2019-05-29T05:17:31.737Z,4.93
2019-05-29T05:21:33.941Z,4.93
2019-05-29T05:25:36.238Z,4.60
2019-05-29T05:29:38.358Z,5.63
2019-05-29T05:33:40.898Z,5.07
2019-05-29T05:37:42.092Z,6.13
2019-05-29T05:41:43.051Z,4.43
2019-05-29T05:45:44.117Z,5.20
2019-05-29T05:49:45.009Z,4.13
2019-05-29T05:53:45.878Z,3.87
2019-05-29T05:57:46.778Z,3.97
2019-05-29T06:01:47.609Z,4.00
2019-05-29T06:05:48.504Z,3.80
2019-05-29T06:09:49.378Z,3.67
2019-05-29T06:13:50.258Z,2.80
2019-05-29T06:18:10.232Z,3.17
2019-05-29T06:21:53.972Z,3.30
2019-05-29T06:25:54.839Z,2.77
2019-05-29T06:29:55.946Z,2.87
2019-05-29T06:33:56.819Z,3.00
2019-05-29T06:37:57.673Z,3.07
2019-05-29T06:41:58.667Z,2.70
2019-05-29T06:45:59.650Z,3.53
2019-05-29T06:50:00.646Z,3.37
2019-05-29T06:54:01.633Z,3.77
2019-05-29T06:58:03.065Z,3.47
2019-05-29T07:02:04.467Z,4.33
2019-05-29T07:06:05.362Z,3.87
2019-05-29T07:10:06.526Z,3.23
2019-05-29T07:14:07.524Z,3.00
2019-05-29T07:18:08.406Z,2.93
2019-05-29T07:22:09.269Z,3.00
2019-05-29T07:26:10.128Z,2.77
2019-05-29T07:30:11.515Z,3.17
2019-05-29T07:34:12.370Z,3.10
2019-05-29T07:38:13.412Z,3.87
2019-05-29T07:42:14.296Z,4.60
2019-05-29T07:46:15.171Z,4.37
2019-05-29T07:50:16.415Z,4.50
2019-05-29T07:54:17.262Z,4.40
2019-05-29T07:58:18.238Z,4.83
2019-05-29T08:02:19.098Z,4.37
2019-05-29T08:06:20.189Z,4.30
2019-05-29T08:10:23.058Z,3.40
2019-05-29T08:14:24.122Z,3.00
2019-05-29T08:18:25.007Z,4.57
2019-05-29T08:22:34.277Z,4.20
2019-05-29T08:26:29.057Z,3.43
2019-05-29T08:30:29.958Z,5.40
2019-05-29T08:34:30.967Z,4.90
2019-05-29T08:38:31.859Z,4.80
2019-05-29T08:42:32.849Z,4.70
2019-05-29T08:46:33.741Z,4.90
2019-05-29T08:50:34.618Z,5.53
2019-05-29T08:54:35.615Z,3.87
2019-05-29T08:58:37.430Z,3.77
2019-05-29T09:02:38.946Z,5.33
2019-05-29T09:06:39.801Z,4.00
2019-05-29T09:10:40.698Z,4.77
2019-05-29T09:14:41.583Z,3.93
2019-05-29T09:18:42.460Z,4.33
2019-05-29T09:22:43.452Z,4.13
2019-05-29T09:26:46.411Z,3.77
2019-05-29T09:30:47.261Z,3.37
2019-05-29T09:34:48.136Z,3.30
2019-05-29T09:38:49.044Z,3.83
2019-05-29T09:42:49.985Z,3.50
2019-05-29T09:46:50.982Z,3.00
2019-05-29T09:50:51.980Z,3.23
2019-05-29T09:54:53.457Z,3.40
2019-05-29T09:58:56.595Z,2.73
2019-05-29T10:02:59.411Z,2.40
2019-05-29T10:07:02.141Z,2.60
2019-05-29T10:11:08.408Z,2.77
2019-05-29T10:15:09.495Z,2.60
2019-05-29T10:19:10.380Z,2.50
2019-05-29T10:23:11.217Z,3.07
2019-05-29T10:27:12.127Z,2.60
2019-05-29T10:31:13.098Z,2.13
2019-05-29T10:35:14.176Z,1.80
2019-05-29T10:39:15.062Z,1.57
2019-05-29T10:43:30.950Z,1.10
2019-05-29T10:47:19.107Z,1.93
2019-05-29T10:51:20.114Z,1.50
2019-05-29T10:55:22.015Z,1.70
2019-05-29T10:59:22.867Z,2.00
2019-05-29T11:03:23.795Z,1.40
2019-05-29T11:07:24.692Z,2.23
2019-05-29T11:11:25.671Z,1.40
2019-05-29T11:15:26.559Z,1.83
2019-05-29T11:19:27.410Z,1.87
2019-05-29T11:23:28.297Z,2.57
2019-05-29T11:27:29.192Z,2.27
2019-05-29T11:31:30.070Z,1.80
2019-05-29T11:35:31.191Z,2.47
2019-05-29T11:39:32.216Z,1.97
2019-05-29T11:43:33.171Z,2.40
2019-05-29T11:47:34.113Z,1.53
2019-05-29T11:51:35.070Z,2.17
2019-05-29T11:55:35.985Z,3.27
2019-05-29T11:59:36.881Z,1.87
2019-05-29T12:03:58.295Z,1.63
2019-05-29T12:07:40.570Z,2.00
2019-05-29T12:11:41.488Z,2.57
2019-05-29T12:15:42.474Z,2.63
2019-05-29T12:19:43.355Z,1.70
2019-05-29T12:23:44.244Z,1.73
2019-05-29T12:27:45.150Z,1.33
2019-05-29T12:31:46.098Z,1.10
2019-05-29T12:35:50.082Z,1.10
2019-05-29T12:39:49.779Z,1.00
2019-05-29T12:43:50.669Z,1.50
2019-05-29T12:47:51.660Z,1.30
2019-05-29T12:51:53.499Z,1.20
2019-05-29T12:55:55.995Z,1.97
2019-05-29T12:59:58.011Z,1.10
2019-05-29T13:04:00.270Z,1.07
2019-05-29T13:08:03.093Z,1.30
2019-05-29T13:12:04.823Z,1.20
2019-05-29T13:16:05.896Z,1.73
2019-05-29T13:20:20.645Z,2.63
2019-05-29T13:24:11.714Z,2.67
2019-05-29T13:28:12.982Z,1.93
2019-05-29T13:32:13.993Z,2.00
2019-05-29T13:36:15.110Z,1.73
2019-05-29T13:40:16.485Z,1.83
2019-05-29T13:44:17.351Z,1.00
2019-05-29T13:48:18.323Z,1.43
2019-05-29T13:52:19.225Z,1.00
2019-05-29T13:56:24.049Z,0.77
2019-05-29T14:00:33.359Z,1.40
2019-05-29T14:04:26.342Z,1.50
2019-05-29T14:08:27.345Z,1.30
2019-05-29T14:12:28.232Z,1.10
2019-05-29T14:16:29.196Z,1.40
2019-05-29T14:20:30.170Z,1.30
2019-05-29T14:24:31.048Z,1.30
2019-05-29T14:28:32.024Z,1.40
2019-05-29T14:32:32.899Z,1.27
2019-05-29T14:36:33.773Z,2.23
2019-05-29T14:40:34.723Z,1.20
2019-05-29T14:44:35.602Z,1.00
2019-05-29T14:48:36.493Z,1.13
2019-05-29T14:52:37.403Z,1.00
2019-05-29T14:56:38.363Z,1.23
2019-05-29T15:00:39.264Z,1.07
2019-05-29T15:04:40.224Z,1.63
2019-05-29T15:08:41.159Z,1.20
2019-05-29T15:12:42.040Z,1.13
2019-05-29T15:16:42.914Z,0.90
2019-05-29T15:20:43.968Z,1.20
2019-05-29T15:25:00.875Z,1.30
2019-05-29T15:28:47.810Z,1.83
2019-05-29T15:32:48.784Z,1.53
2019-05-29T15:36:50.077Z,5.23
2019-05-29T15:40:51.055Z,0.90
2019-05-29T15:44:51.954Z,1.30
2019-05-29T15:48:52.960Z,1.07
2019-05-29T15:52:54.070Z,1.00
2019-05-29T15:56:55.063Z,0.70
2019-05-29T16:00:55.941Z,0.70
2019-05-29T16:04:56.919Z,0.60
2019-05-29T16:08:57.802Z,0.80
2019-05-29T16:12:58.703Z,0.80
2019-05-29T16:16:59.668Z,0.70
2019-05-29T16:21:00.573Z,0.80
2019-05-29T16:25:01.825Z,0.60
2019-05-29T16:29:02.987Z,0.60
2019-05-29T16:33:04.069Z,0.77
2019-05-29T16:37:04.961Z,0.70
2019-05-29T16:41:05.999Z,0.53
2019-05-29T16:45:07.952Z,1.00
2019-05-29T16:49:08.918Z,0.70
2019-05-29T16:53:09.948Z,1.07
2019-05-29T16:57:10.853Z,0.57
2019-05-29T17:01:13.195Z,0.70
2019-05-29T17:05:15.671Z,0.73
2019-05-29T17:09:18.152Z,1.17
2019-05-29T17:13:20.551Z,0.73
2019-05-29T17:17:22.581Z,1.97
2019-05-29T17:21:24.849Z,1.60
2019-05-29T17:25:28.463Z,0.77
2019-05-29T17:29:28.917Z,1.07
2019-05-29T17:33:29.807Z,1.23
2019-05-29T17:37:30.678Z,2.30
2019-05-29T17:41:31.536Z,2.13
2019-05-29T17:45:32.620Z,1.60
2019-05-29T17:49:34.730Z,0.80
2019-05-29T17:53:36.005Z,1.37
2019-05-29T17:57:36.880Z,1.07
2019-05-29T18:01:38.266Z,1.37
2019-05-29T18:05:39.133Z,0.90
2019-05-29T18:09:40.024Z,1.40
2019-05-29T18:13:41.005Z,0.97
2019-05-29T18:17:44.275Z,1.30
2019-05-29T18:21:44.774Z,1.50
2019-05-29T18:25:45.887Z,1.50
2019-05-29T18:29:46.888Z,1.77
2019-05-29T18:33:47.769Z,0.87
2019-05-29T18:37:48.741Z,1.17
2019-05-29T18:41:49.623Z,1.10
2019-05-29T18:45:50.492Z,2.13
2019-05-29T18:49:51.383Z,0.90
2019-05-29T18:53:52.403Z,1.30
2019-05-29T18:57:53.396Z,3.17
2019-05-29T19:01:54.370Z,1.27
2019-05-29T19:05:55.402Z,1.50
2019-05-29T19:09:56.371Z,1.17
2019-05-29T19:13:57.218Z,1.70
2019-05-29T19:17:58.203Z,2.53
2019-05-29T19:21:59.250Z,2.93
2019-05-29T19:26:00.212Z,2.07
2019-05-29T19:30:01.418Z,1.90
2019-05-29T19:34:02.511Z,1.67
2019-05-29T19:38:03.525Z,2.80
2019-05-29T19:42:04.597Z,1.90
2019-05-29T19:46:05.923Z,1.90
2019-05-29T19:50:11.103Z,2.20
2019-05-29T19:54:11.392Z,2.30
2019-05-29T19:58:12.540Z,5.20
2019-05-29T20:02:13.533Z,3.30
2019-05-29T20:06:14.496Z,2.90
2019-05-29T20:10:15.588Z,3.30
2019-05-29T20:14:16.466Z,2.70
2019-05-29T20:18:17.379Z,2.43
2019-05-29T20:22:18.370Z,2.53
2019-05-29T20:26:19.388Z,3.07
2019-05-29T20:30:20.469Z,3.50
2019-05-29T20:34:21.376Z,3.43
2019-05-29T20:38:22.359Z,3.53
2019-05-29T20:42:23.507Z,4.13
2019-05-29T20:46:24.350Z,3.87
2019-05-29T20:50:25.235Z,4.50
2019-05-29T20:54:26.136Z,3.60
2019-05-29T20:58:27.094Z,4.27
2019-05-29T21:02:28.097Z,3.87
2019-05-29T21:06:29.080Z,3.73
2019-05-29T21:10:30.164Z,3.80
2019-05-29T21:14:31.578Z,3.83
2019-05-29T21:18:33.726Z,4.60
2019-05-29T21:22:34.811Z,3.53
2019-05-29T21:26:36.896Z,4.00
2019-05-29T21:30:39.415Z,4.13
2019-05-29T21:34:40.501Z,3.83
2019-05-29T21:38:42.305Z,3.87
2019-05-29T21:42:43.264Z,3.87
2019-05-29T21:46:45.137Z,3.37
2019-05-29T21:50:47.375Z,3.67
2019-05-29T21:54:48.478Z,3.37
2019-05-29T21:59:02.628Z,3.97
2019-05-29T22:02:52.252Z,3.53
2019-05-29T22:06:53.604Z,3.73
2019-05-29T22:10:55.533Z,3.80
2019-05-29T22:14:56.971Z,3.90
2019-05-29T22:19:00.834Z,4.50
2019-05-29T22:23:02.689Z,3.77
2019-05-29T22:27:03.821Z,3.70
2019-05-29T22:31:04.706Z,3.90
2019-05-29T22:35:06.084Z,3.67
2019-05-29T22:39:07.163Z,3.67
2019-05-29T22:43:08.233Z,3.20
2019-05-29T22:47:09.130Z,3.87
2019-05-29T22:51:10.136Z,3.07
2019-05-29T22:55:11.499Z,3.33
2019-05-29T22:59:12.363Z,3.83
2019-05-29T23:03:13.234Z,3.00
2019-05-29T23:07:14.109Z,3.50
2019-05-29T23:11:15.118Z,3.77
2019-05-29T23:15:16.573Z,3.73
2019-05-29T23:19:17.448Z,3.37
2019-05-29T23:23:18.355Z,3.23
2019-05-29T23:27:19.215Z,3.97
2019-05-29T23:31:20.078Z,3.37
2019-05-29T23:35:20.949Z,4.10
2019-05-29T23:39:21.974Z,4.00
2019-05-29T23:43:23.052Z,3.87
2019-05-29T23:47:23.992Z,4.37
2019-05-29T23:51:24.943Z,4.13
2019-05-29T23:55:25.908Z,4.43
2019-05-29T23:59:26.904Z,5.50
